sensor_id;sensor_type;location;lat;lon;timestamp;pressure;altitude;pressure_sealevel;temperature;humidity
21395;BME280;10858;42.714;23.180;2023-01-31T00:01:16;93932.97;;;2.38;63.49
21395;BME280;10858;42.714;23.180;2023-01-31T00:03:43;93928.03;;;2.34;63.99
21395;BME280;10858;42.714;23.180;2023-01-31T00:06:29;93922.81;;;2.20;64.53
21395;BME280;10858;42.714;23.180;2023-01-31T00:08:56;93923.13;;;2.42;63.99
21395;BME280;10858;42.714;23.180;2023-01-31T00:11:25;93929.38;;;2.13;63.59
21395;BME280;10858;42.714;23.180;2023-01-31T00:13:52;93936.84;;;2.05;63.25
21395;BME280;10858;42.714;23.180;2023-01-31T00:16:20;93938.66;;;2.04;63.27
21395;BME280;10858;42.714;23.180;2023-01-31T00:18:47;93955.63;;;2.11;63.09
21395;BME280;10858;42.714;23.180;2023-01-31T00:21:21;93947.53;;;2.02;63.13
21395;BME280;10858;42.714;23.180;2023-01-31T00:23:49;93945.28;;;1.96;63.19
21395;BME280;10858;42.714;23.180;2023-01-31T00:26:24;93950.69;;;1.93;63.75
21395;BME280;10858;42.714;23.180;2023-01-31T00:28:53;93932.00;;;1.99;63.42
21395;BME280;10858;42.714;23.180;2023-01-31T00:31:22;93931.09;;;2.00;63.77
21395;BME280;10858;42.714;23.180;2023-01-31T00:33:57;93935.38;;;1.87;65.21
21395;BME280;10858;42.714;23.180;2023-01-31T00:36:35;93929.47;;;2.11;64.15
21395;BME280;10858;42.714;23.180;2023-01-31T00:39:03;93937.06;;;2.02;62.95
21395;BME280;10858;42.714;23.180;2023-01-31T00:41:33;93926.69;;;2.14;63.53
21395;BME280;10858;42.714;23.180;2023-01-31T00:44:00;93932.34;;;2.21;63.08
21395;BME280;10858;42.714;23.180;2023-01-31T00:46:27;93934.59;;;2.13;62.50
21395;BME280;10858;42.714;23.180;2023-01-31T00:48:54;93936.66;;;2.22;63.61
21395;BME280;10858;42.714;23.180;2023-01-31T00:51:22;93932.22;;;1.82;66.05
21395;BME280;10858;42.714;23.180;2023-01-31T00:53:49;93936.88;;;1.77;66.09
21395;BME280;10858;42.714;23.180;2023-01-31T00:56:20;93940.63;;;1.58;66.31
21395;BME280;10858;42.714;23.180;2023-01-31T00:58:50;93948.84;;;1.66;66.04
21395;BME280;10858;42.714;23.180;2023-01-31T01:01:19;93966.69;;;1.74;66.13
21395;BME280;10858;42.714;23.180;2023-01-31T01:03:47;93959.66;;;1.60;66.53
21395;BME280;10858;42.714;23.180;2023-01-31T01:06:13;93966.16;;;1.11;68.46
21395;BME280;10858;42.714;23.180;2023-01-31T01:08:40;93960.56;;;1.17;66.93
21395;BME280;10858;42.714;23.180;2023-01-31T01:11:16;93946.22;;;1.24;65.80
21395;BME280;10858;42.714;23.180;2023-01-31T01:13:52;93951.53;;;1.23;64.25
21395;BME280;10858;42.714;23.180;2023-01-31T01:16:27;93952.94;;;1.42;64.23
21395;BME280;10858;42.714;23.180;2023-01-31T01:18:55;93950.44;;;1.55;63.06
21395;BME280;10858;42.714;23.180;2023-01-31T01:21:24;93948.09;;;1.50;63.49
21395;BME280;10858;42.714;23.180;2023-01-31T01:23:56;93953.88;;;1.41;62.84
21395;BME280;10858;42.714;23.180;2023-01-31T01:26:25;93940.25;;;1.36;62.64
21395;BME280;10858;42.714;23.180;2023-01-31T01:28:52;93940.25;;;1.36;63.29
21395;BME280;10858;42.714;23.180;2023-01-31T01:31:22;93929.97;;;1.19;62.99
21395;BME280;10858;42.714;23.180;2023-01-31T01:34:07;93935.94;;;1.07;62.76
21395;BME280;10858;42.714;23.180;2023-01-31T01:36:35;93948.97;;;1.07;63.17
21395;BME280;10858;42.714;23.180;2023-01-31T01:39:06;93947.25;;;1.22;62.07
21395;BME280;10858;42.714;23.180;2023-01-31T01:41:34;93950.53;;;1.39;61.94
21395;BME280;10858;42.714;23.180;2023-01-31T01:47:56;93948.47;;;1.58;61.33
21395;BME280;10858;42.714;23.180;2023-01-31T01:52:57;93956.50;;;1.84;60.71
21395;BME280;10858;42.714;23.180;2023-01-31T01:55:27;93951.38;;;1.68;61.58
21395;BME280;10858;42.714;23.180;2023-01-31T01:58:00;93940.09;;;1.53;61.43
21395;BME280;10858;42.714;23.180;2023-01-31T02:00:28;93940.09;;;1.67;61.68
21395;BME280;10858;42.714;23.180;2023-01-31T02:02:58;93953.53;;;1.61;62.06
21395;BME280;10858;42.714;23.180;2023-01-31T02:08:06;93959.97;;;1.42;61.82
21395;BME280;10858;42.714;23.180;2023-01-31T02:10:58;93962.63;;;1.40;61.81
21395;BME280;10858;42.714;23.180;2023-01-31T02:13:27;93956.28;;;1.30;61.42
21395;BME280;10858;42.714;23.180;2023-01-31T02:15:55;93956.69;;;1.24;61.39
21395;BME280;10858;42.714;23.180;2023-01-31T02:18:23;93946.59;;;1.32;60.89
21395;BME280;10858;42.714;23.180;2023-01-31T02:32:33;93956.22;;;1.46;59.55
21395;BME280;10858;42.714;23.180;2023-01-31T02:43:49;93953.91;;;1.55;59.47
21395;BME280;10858;42.714;23.180;2023-01-31T02:49:41;93980.41;;;1.78;58.61
21395;BME280;10858;42.714;23.180;2023-01-31T02:54:50;93990.13;;;1.90;57.58
21395;BME280;10858;42.714;23.180;2023-01-31T02:57:38;94002.06;;;1.80;58.80
21395;BME280;10858;42.714;23.180;2023-01-31T03:00:07;94004.69;;;2.08;58.56
21395;BME280;10858;42.714;23.180;2023-01-31T03:02:34;94005.69;;;2.19;57.92
21395;BME280;10858;42.714;23.180;2023-01-31T03:05:00;93996.81;;;2.22;58.70
21395;BME280;10858;42.714;23.180;2023-01-31T03:07:32;94011.16;;;1.88;58.56
21395;BME280;10858;42.714;23.180;2023-01-31T03:13:30;94022.41;;;1.60;60.42
21395;BME280;10858;42.714;23.180;2023-01-31T03:16:01;94015.88;;;1.67;60.79
21395;BME280;10858;42.714;23.180;2023-01-31T03:22:03;94020.81;;;1.44;62.37
21395;BME280;10858;42.714;23.180;2023-01-31T03:24:31;94030.06;;;1.63;61.96
21395;BME280;10858;42.714;23.180;2023-01-31T03:27:00;94035.31;;;1.63;62.31
21395;BME280;10858;42.714;23.180;2023-01-31T03:29:28;94040.72;;;1.74;62.75
21395;BME280;10858;42.714;23.180;2023-01-31T03:34:51;94047.81;;;1.72;62.96
21395;BME280;10858;42.714;23.180;2023-01-31T03:37:42;94051.53;;;1.68;63.76
21395;BME280;10858;42.714;23.180;2023-01-31T03:40:26;94047.63;;;1.76;63.87
21395;BME280;10858;42.714;23.180;2023-01-31T03:43:11;94054.09;;;1.70;65.04
21395;BME280;10858;42.714;23.180;2023-01-31T03:45:56;94054.13;;;1.54;66.08
21395;BME280;10858;42.714;23.180;2023-01-31T03:48:28;94053.47;;;1.51;66.28
21395;BME280;10858;42.714;23.180;2023-01-31T03:51:01;94055.06;;;1.53;66.94
21395;BME280;10858;42.714;23.180;2023-01-31T03:53:40;94049.84;;;1.53;66.20
21395;BME280;10858;42.714;23.180;2023-01-31T03:58:52;94062.97;;;1.82;66.98
21395;BME280;10858;42.714;23.180;2023-01-31T04:01:22;94061.00;;;1.85;66.31
21395;BME280;10858;42.714;23.180;2023-01-31T04:03:58;94058.81;;;1.63;66.90
21395;BME280;10858;42.714;23.180;2023-01-31T04:06:27;94065.16;;;1.59;67.54
21395;BME280;10858;42.714;23.180;2023-01-31T04:08:53;94065.28;;;1.42;68.08
21395;BME280;10858;42.714;23.180;2023-01-31T04:11:23;94071.47;;;1.41;69.28
21395;BME280;10858;42.714;23.180;2023-01-31T04:13:49;94088.41;;;1.34;69.24
21395;BME280;10858;42.714;23.180;2023-01-31T04:16:15;94083.31;;;1.17;70.53
21395;BME280;10858;42.714;23.180;2023-01-31T04:18:42;94078.00;;;1.19;70.22
21395;BME280;10858;42.714;23.180;2023-01-31T04:21:08;94083.31;;;1.17;70.34
21395;BME280;10858;42.714;23.180;2023-01-31T04:23:35;94077.72;;;0.94;71.18
21395;BME280;10858;42.714;23.180;2023-01-31T04:26:01;94079.69;;;0.90;72.74
21395;BME280;10858;42.714;23.180;2023-01-31T04:28:28;94078.22;;;1.00;72.06
21395;BME280;10858;42.714;23.180;2023-01-31T04:30:55;94086.97;;;0.99;71.86
21395;BME280;10858;42.714;23.180;2023-01-31T04:33:23;94087.41;;;0.92;72.42
21395;BME280;10858;42.714;23.180;2023-01-31T04:35:52;94086.81;;;1.02;72.88
21395;BME280;10858;42.714;23.180;2023-01-31T04:38:18;94083.81;;;0.94;72.87
21395;BME280;10858;42.714;23.180;2023-01-31T04:40:45;94081.19;;;0.94;72.96
21395;BME280;10858;42.714;23.180;2023-01-31T04:43:11;94081.09;;;0.96;73.14
21395;BME280;10858;42.714;23.180;2023-01-31T04:45:37;94084.97;;;1.04;73.24
21395;BME280;10858;42.714;23.180;2023-01-31T04:48:04;94087.72;;;1.01;73.01
21395;BME280;10858;42.714;23.180;2023-01-31T04:50:30;94082.28;;;0.90;73.55
21395;BME280;10858;42.714;23.180;2023-01-31T04:52:56;94085.22;;;1.00;73.11
21395;BME280;10858;42.714;23.180;2023-01-31T04:55:23;94082.50;;;1.01;72.91
21395;BME280;10858;42.714;23.180;2023-01-31T04:57:49;94082.09;;;0.93;73.78
21395;BME280;10858;42.714;23.180;2023-01-31T05:00:16;94085.03;;;1.03;72.84
21395;BME280;10858;42.714;23.180;2023-01-31T05:02:42;94075.28;;;1.06;73.26
21395;BME280;10858;42.714;23.180;2023-01-31T05:05:08;94075.69;;;1.14;73.23
21395;BME280;10858;42.714;23.180;2023-01-31T05:07:35;94078.94;;;1.18;73.38
21395;BME280;10858;42.714;23.180;2023-01-31T05:10:01;94095.13;;;1.24;72.84
21395;BME280;10858;42.714;23.180;2023-01-31T05:12:28;94104.94;;;1.35;71.58
21395;BME280;10858;42.714;23.180;2023-01-31T05:14:55;94088.47;;;1.19;72.65
21395;BME280;10858;42.714;23.180;2023-01-31T05:17:21;94084.13;;;1.33;72.20
21395;BME280;10858;42.714;23.180;2023-01-31T05:19:54;94093.94;;;1.30;71.80
21395;BME280;10858;42.714;23.180;2023-01-31T05:22:21;94093.63;;;1.50;71.73
21395;BME280;10858;42.714;23.180;2023-01-31T05:24:48;94092.06;;;1.61;71.08
21395;BME280;10858;42.714;23.180;2023-01-31T05:27:15;94100.81;;;1.60;70.95
21395;BME280;10858;42.714;23.180;2023-01-31T05:29:42;94112.41;;;1.70;70.57
21395;BME280;10858;42.714;23.180;2023-01-31T05:32:08;94119.44;;;1.70;70.57
21395;BME280;10858;42.714;23.180;2023-01-31T05:34:34;94107.44;;;1.52;71.08
21395;BME280;10858;42.714;23.180;2023-01-31T05:37:01;94115.19;;;1.53;70.57
21395;BME280;10858;42.714;23.180;2023-01-31T05:39:28;94120.41;;;1.53;71.51
21395;BME280;10858;42.714;23.180;2023-01-31T05:41:54;94120.75;;;1.47;71.77
21395;BME280;10858;42.714;23.180;2023-01-31T05:44:21;94128.50;;;1.49;71.17
21395;BME280;10858;42.714;23.180;2023-01-31T05:46:47;94121.69;;;1.46;72.19
21395;BME280;10858;42.714;23.180;2023-01-31T05:49:14;94116.84;;;1.54;71.51
21395;BME280;10858;42.714;23.180;2023-01-31T05:51:40;94115.84;;;1.57;71.89
21395;BME280;10858;42.714;23.180;2023-01-31T05:54:07;94115.44;;;1.49;72.48
21395;BME280;10858;42.714;23.180;2023-01-31T05:56:35;94128.66;;;1.61;72.19
21395;BME280;10858;42.714;23.180;2023-01-31T05:59:01;94122.66;;;1.59;71.93
21395;BME280;10858;42.714;23.180;2023-01-31T06:01:28;94138.00;;;1.65;72.26
21395;BME280;10858;42.714;23.180;2023-01-31T06:03:55;94134.47;;;1.81;71.64
21395;BME280;10858;42.714;23.180;2023-01-31T06:06:21;94136.53;;;1.76;71.95
21395;BME280;10858;42.714;23.180;2023-01-31T06:08:47;94146.88;;;1.77;72.00
21395;BME280;10858;42.714;23.180;2023-01-31T06:11:14;94143.75;;;1.86;72.03
21395;BME280;10858;42.714;23.180;2023-01-31T06:13:41;94140.94;;;1.89;71.59
21395;BME280;10858;42.714;23.180;2023-01-31T06:16:11;94136.94;;;1.98;71.63
21395;BME280;10858;42.714;23.180;2023-01-31T06:18:38;94135.13;;;1.70;71.37
21395;BME280;10858;42.714;23.180;2023-01-31T06:21:04;94127.38;;;1.83;71.86
21395;BME280;10858;42.714;23.180;2023-01-31T06:23:30;94131.31;;;1.76;71.59
21395;BME280;10858;42.714;23.180;2023-01-31T06:25:59;94139.47;;;1.99;71.01
21395;BME280;10858;42.714;23.180;2023-01-31T06:28:25;94146.75;;;1.94;71.17
21395;BME280;10858;42.714;23.180;2023-01-31T06:30:52;94146.66;;;1.96;71.29
21395;BME280;10858;42.714;23.180;2023-01-31T06:33:18;94146.28;;;1.88;71.87
21395;BME280;10858;42.714;23.180;2023-01-31T06:35:44;94148.03;;;1.87;71.94
21395;BME280;10858;42.714;23.180;2023-01-31T06:38:10;94144.81;;;1.98;71.25
21395;BME280;10858;42.714;23.180;2023-01-31T06:40:41;94147.13;;;1.88;71.93
21395;BME280;10858;42.714;23.180;2023-01-31T06:43:07;94144.81;;;2.12;71.24
21395;BME280;10858;42.714;23.180;2023-01-31T06:45:34;94145.97;;;2.36;69.78
21395;BME280;10858;42.714;23.180;2023-01-31T06:48:00;94138.66;;;2.27;69.43
21395;BME280;10858;42.714;23.180;2023-01-31T06:50:26;94141.97;;;2.44;68.97
21395;BME280;10858;42.714;23.180;2023-01-31T06:52:53;94139.50;;;2.55;69.35
21395;BME280;10858;42.714;23.180;2023-01-31T06:55:19;94145.38;;;2.31;69.11
21395;BME280;10858;42.714;23.180;2023-01-31T06:57:46;94139.78;;;2.37;69.66
21395;BME280;10858;42.714;23.180;2023-01-31T07:00:13;94136.41;;;2.49;68.85
21395;BME280;10858;42.714;23.180;2023-01-31T07:02:40;94148.97;;;2.58;69.14
21395;BME280;10858;42.714;23.180;2023-01-31T07:05:06;94142.41;;;2.23;69.80
21395;BME280;10858;42.714;23.180;2023-01-31T07:07:33;94158.69;;;2.56;69.58
21395;BME280;10858;42.714;23.180;2023-01-31T07:09:59;94157.09;;;2.53;69.44
21395;BME280;10858;42.714;23.180;2023-01-31T07:12:26;94145.38;;;2.31;70.22
21395;BME280;10858;42.714;23.180;2023-01-31T07:14:52;94153.34;;;2.57;69.81
21395;BME280;10858;42.714;23.180;2023-01-31T07:17:19;94152.88;;;2.37;69.81
21395;BME280;10858;42.714;23.180;2023-01-31T07:19:46;94168.56;;;2.23;70.72
21395;BME280;10858;42.714;23.180;2023-01-31T07:22:12;94174.16;;;2.17;70.62
21395;BME280;10858;42.714;23.180;2023-01-31T07:24:39;94181.13;;;2.46;70.52
21395;BME280;10858;42.714;23.180;2023-01-31T07:27:05;94177.38;;;2.78;69.70
21395;BME280;10858;42.714;23.180;2023-01-31T07:29:31;94165.94;;;2.93;68.96
21395;BME280;10858;42.714;23.180;2023-01-31T07:31:57;94171.47;;;2.75;69.06
21395;BME280;10858;42.714;23.180;2023-01-31T07:34:24;94172.53;;;3.27;67.88
21395;BME280;10858;42.714;23.180;2023-01-31T07:36:50;94165.22;;;2.77;69.32
21395;BME280;10858;42.714;23.180;2023-01-31T07:39:17;94173.16;;;2.76;69.84
21395;BME280;10858;42.714;23.180;2023-01-31T07:41:43;94189.44;;;2.81;69.62
21395;BME280;10858;42.714;23.180;2023-01-31T07:44:09;94189.53;;;2.93;69.66
21395;BME280;10858;42.714;23.180;2023-01-31T07:46:36;94195.88;;;2.89;70.31
21395;BME280;10858;42.714;23.180;2023-01-31T07:49:11;94193.63;;;2.97;69.88
21395;BME280;10858;42.714;23.180;2023-01-31T07:51:38;94189.38;;;3.23;69.84
21395;BME280;10858;42.714;23.180;2023-01-31T07:54:08;94173.91;;;3.47;68.62
21395;BME280;10858;42.714;23.180;2023-01-31T07:56:35;94187.41;;;3.40;68.53
21395;BME280;10858;42.714;23.180;2023-01-31T07:59:02;94174.53;;;3.77;68.26
21395;BME280;10858;42.714;23.180;2023-01-31T08:01:28;94169.97;;;3.39;68.54
21395;BME280;10858;42.714;23.180;2023-01-31T08:04:15;94160.53;;;3.23;69.16
21395;BME280;10858;42.714;23.180;2023-01-31T08:06:43;94168.78;;;3.58;68.54
21395;BME280;10858;42.714;23.180;2023-01-31T08:09:10;94181.44;;;3.78;67.21
21395;BME280;10858;42.714;23.180;2023-01-31T08:11:37;94182.41;;;3.50;67.40
21395;BME280;10858;42.714;23.180;2023-01-31T08:14:03;94181.50;;;3.64;67.26
21395;BME280;10858;42.714;23.180;2023-01-31T08:16:30;94186.19;;;4.37;65.44
21395;BME280;10858;42.714;23.180;2023-01-31T08:18:57;94176.63;;;4.74;63.83
21395;BME280;10858;42.714;23.180;2023-01-31T08:21:23;94191.13;;;4.42;63.72
21395;BME280;10858;42.714;23.180;2023-01-31T08:23:49;94186.00;;;4.53;64.58
21395;BME280;10858;42.714;23.180;2023-01-31T08:26:20;94195.44;;;4.43;63.97
21395;BME280;10858;42.714;23.180;2023-01-31T08:28:47;94197.66;;;3.97;65.28
21395;BME280;10858;42.714;23.180;2023-01-31T08:31:17;94192.72;;;3.39;67.57
21395;BME280;10858;42.714;23.180;2023-01-31T08:33:43;94188.31;;;3.39;68.48
21395;BME280;10858;42.714;23.180;2023-01-31T08:36:11;94182.19;;;3.53;68.42
21395;BME280;10858;42.714;23.180;2023-01-31T08:38:38;94178.34;;;3.98;67.78
21395;BME280;10858;42.714;23.180;2023-01-31T08:41:04;94176.50;;;4.12;66.74
21395;BME280;10858;42.714;23.180;2023-01-31T08:43:30;94157.13;;;4.01;65.97
21395;BME280;10858;42.714;23.180;2023-01-31T08:45:57;94179.38;;;3.95;65.63
21395;BME280;10858;42.714;23.180;2023-01-31T08:48:23;94172.53;;;4.32;65.44
21395;BME280;10858;42.714;23.180;2023-01-31T08:50:50;94170.34;;;3.87;66.12
21395;BME280;10858;42.714;23.180;2023-01-31T08:53:16;94173.50;;;3.92;65.95
21395;BME280;10858;42.714;23.180;2023-01-31T08:55:42;94166.34;;;4.71;63.92
21395;BME280;10858;42.714;23.180;2023-01-31T08:58:08;94168.25;;;4.56;63.06
21395;BME280;10858;42.714;23.180;2023-01-31T09:00:35;94163.69;;;4.33;63.71
21395;BME280;10858;42.714;23.180;2023-01-31T09:03:01;94173.59;;;4.42;63.45
21395;BME280;10858;42.714;23.180;2023-01-31T09:05:28;94161.50;;;4.40;63.20
21395;BME280;10858;42.714;23.180;2023-01-31T09:07:55;94166.66;;;4.66;62.36
21395;BME280;10858;42.714;23.180;2023-01-31T09:10:21;94160.75;;;5.00;61.35
21395;BME280;10858;42.714;23.180;2023-01-31T09:12:48;94183.88;;;4.45;63.55
21395;BME280;10858;42.714;23.180;2023-01-31T09:15:14;94168.97;;;4.58;63.00
21395;BME280;10858;42.714;23.180;2023-01-31T09:17:41;94170.94;;;5.05;61.77
21395;BME280;10858;42.714;23.180;2023-01-31T09:20:09;94157.16;;;5.01;62.09
21395;BME280;10858;42.714;23.180;2023-01-31T09:22:36;94152.00;;;5.49;60.87
21395;BME280;10858;42.714;23.180;2023-01-31T09:25:02;94152.94;;;6.19;58.98
21395;BME280;10858;42.714;23.180;2023-01-31T09:27:30;94155.06;;;6.14;59.00
21395;BME280;10858;42.714;23.180;2023-01-31T09:30:04;94152.91;;;5.84;58.75
21395;BME280;10858;42.714;23.180;2023-01-31T09:32:31;94144.75;;;5.40;60.98
21395;BME280;10858;42.714;23.180;2023-01-31T09:34:58;94150.44;;;4.97;61.89
21395;BME280;10858;42.714;23.180;2023-01-31T09:37:24;94140.81;;;4.60;63.46
21395;BME280;10858;42.714;23.180;2023-01-31T09:39:50;94139.34;;;4.31;64.27
21395;BME280;10858;42.714;23.180;2023-01-31T09:42:28;94134.81;;;4.33;64.60
21395;BME280;10858;42.714;23.180;2023-01-31T09:45:03;94126.94;;;4.46;63.46
21395;BME280;10858;42.714;23.180;2023-01-31T09:47:37;94133.69;;;4.24;64.83
21395;BME280;10858;42.714;23.180;2023-01-31T09:50:16;94124.31;;;4.33;64.52
21395;BME280;10858;42.714;23.180;2023-01-31T09:52:43;94128.19;;;4.15;64.41
21395;BME280;10858;42.714;23.180;2023-01-31T09:55:15;94124.94;;;4.87;63.31
21395;BME280;10858;42.714;23.180;2023-01-31T09:58:41;94131.59;;;5.03;62.49
21395;BME280;10858;42.714;23.180;2023-01-31T10:06:42;94112.34;;;4.29;63.32
21395;BME280;10858;42.714;23.180;2023-01-31T10:09:42;94119.91;;;4.33;64.26
21395;BME280;10858;42.714;23.180;2023-01-31T10:14:53;94110.31;;;3.95;65.12
21395;BME280;10858;42.714;23.180;2023-01-31T10:17:22;94100.69;;;3.83;65.42
21395;BME280;10858;42.714;23.180;2023-01-31T10:19:58;94109.81;;;3.51;66.00
21395;BME280;10858;42.714;23.180;2023-01-31T10:23:41;94100.66;;;3.43;66.60
21395;BME280;10858;42.714;23.180;2023-01-31T10:26:00;94099.00;;;3.42;67.40
21395;BME280;10858;42.714;23.180;2023-01-31T10:28:59;94103.34;;;3.56;66.67
21395;BME280;10858;42.714;23.180;2023-01-31T10:31:35;94096.13;;;3.72;66.03
21395;BME280;10858;42.714;23.180;2023-01-31T10:34:22;94092.69;;;4.60;65.17
21395;BME280;10858;42.714;23.180;2023-01-31T10:39:53;94107.38;;;5.47;60.71
21395;BME280;10858;42.714;23.180;2023-01-31T10:42:33;94098.53;;;5.25;60.99
21395;BME280;10858;42.714;23.180;2023-01-31T10:45:16;94095.63;;;5.40;60.49
21395;BME280;10858;42.714;23.180;2023-01-31T10:47:54;94095.84;;;5.84;60.13
21395;BME280;10858;42.714;23.180;2023-01-31T10:50:51;94085.69;;;7.25;54.56
21395;BME280;10858;42.714;23.180;2023-01-31T10:56:32;94103.38;;;5.65;59.50
21395;BME280;10858;42.714;23.180;2023-01-31T10:59:01;94094.78;;;5.40;59.98
21395;BME280;10858;42.714;23.180;2023-01-31T11:01:30;94103.44;;;5.29;61.77
21395;BME280;10858;42.714;23.180;2023-01-31T11:03:56;94105.88;;;4.83;62.22
21395;BME280;10858;42.714;23.180;2023-01-31T11:06:23;94094.09;;;5.25;62.33
21395;BME280;10858;42.714;23.180;2023-01-31T11:08:58;94094.66;;;5.17;61.40
21395;BME280;10858;42.714;23.180;2023-01-31T11:11:27;94097.63;;;4.77;62.42
21395;BME280;10858;42.714;23.180;2023-01-31T11:16:24;94111.72;;;4.51;64.13
21395;BME280;10858;42.714;23.180;2023-01-31T11:18:51;94109.00;;;4.65;64.05
21395;BME280;10858;42.714;23.180;2023-01-31T11:21:47;94109.47;;;4.82;63.58
21395;BME280;10858;42.714;23.180;2023-01-31T11:24:26;94116.03;;;4.39;64.13
21395;BME280;10858;42.714;23.180;2023-01-31T11:27:03;94113.16;;;3.92;66.12
21395;BME280;10858;42.714;23.180;2023-01-31T11:29:33;94111.56;;;3.77;67.14
21395;BME280;10858;42.714;23.180;2023-01-31T11:32:04;94114.97;;;4.04;67.05
21395;BME280;10858;42.714;23.180;2023-01-31T11:34:32;94109.28;;;4.35;66.49
21395;BME280;10858;42.714;23.180;2023-01-31T11:37:25;94106.63;;;3.72;67.58
21395;BME280;10858;42.714;23.180;2023-01-31T11:40:03;94110.03;;;4.12;68.06
21395;BME280;10858;42.714;23.180;2023-01-31T11:42:51;94101.22;;;4.25;66.28
21395;BME280;10858;42.714;23.180;2023-01-31T11:45:20;94100.50;;;4.36;66.12
21395;BME280;10858;42.714;23.180;2023-01-31T11:47:53;94105.72;;;4.11;67.44
21395;BME280;10858;42.714;23.180;2023-01-31T11:50:37;94103.13;;;4.49;65.17
21395;BME280;10858;42.714;23.180;2023-01-31T11:55:40;94093.50;;;3.72;68.50
21395;BME280;10858;42.714;23.180;2023-01-31T12:01:16;94092.25;;;3.78;68.68
21395;BME280;10858;42.714;23.180;2023-01-31T12:04:01;94089.38;;;3.29;68.78
21395;BME280;10858;42.714;23.180;2023-01-31T12:06:32;94098.72;;;3.60;67.88
21395;BME280;10858;42.714;23.180;2023-01-31T12:09:00;94094.91;;;3.38;68.51
21395;BME280;10858;42.714;23.180;2023-01-31T12:11:32;94092.69;;;3.84;67.95
21395;BME280;10858;42.714;23.180;2023-01-31T12:14:16;94102.56;;;4.31;65.82
21395;BME280;10858;42.714;23.180;2023-01-31T12:16:45;94101.19;;;3.88;65.90
21395;BME280;10858;42.714;23.180;2023-01-31T12:22:05;94090.69;;;3.88;66.57
21395;BME280;10858;42.714;23.180;2023-01-31T12:25:01;94096.94;;;4.24;64.82
21395;BME280;10858;42.714;23.180;2023-01-31T12:27:45;94100.78;;;3.94;65.59
21395;BME280;10858;42.714;23.180;2023-01-31T12:30:23;94098.13;;;3.81;65.96
21395;BME280;10858;42.714;23.180;2023-01-31T12:38:48;94109.53;;;4.32;64.57
21395;BME280;10858;42.714;23.180;2023-01-31T13:00:11;94090.34;;;3.55;67.00
21395;BME280;10858;42.714;23.180;2023-01-31T13:08:32;94079.59;;;3.45;67.23
21395;BME280;10858;42.714;23.180;2023-01-31T13:11:08;94083.09;;;3.58;67.43
21395;BME280;10858;42.714;23.180;2023-01-31T13:13:51;94093.13;;;3.52;66.46
21395;BME280;10858;42.714;23.180;2023-01-31T13:16:28;94096.84;;;3.62;66.07
21395;BME280;10858;42.714;23.180;2023-01-31T13:18:59;94110.41;;;3.68;65.90
21395;BME280;10858;42.714;23.180;2023-01-31T13:21:31;94091.44;;;4.15;65.66
21395;BME280;10858;42.714;23.180;2023-01-31T13:24:02;94097.69;;;5.48;61.34
21395;BME280;10858;42.714;23.180;2023-01-31T13:26:49;94096.50;;;6.67;58.32
21395;BME280;10858;42.714;23.180;2023-01-31T13:29:19;94107.97;;;7.43;54.43
21395;BME280;10858;42.714;23.180;2023-01-31T13:32:02;94101.28;;;5.94;58.19
21395;BME280;10858;42.714;23.180;2023-01-31T13:34:47;94101.44;;;5.56;60.07
21395;BME280;10858;42.714;23.180;2023-01-31T13:37:15;94104.84;;;5.46;60.59
21395;BME280;10858;42.714;23.180;2023-01-31T13:39:51;94113.19;;;5.40;60.36
21395;BME280;10858;42.714;23.180;2023-01-31T13:42:19;94111.00;;;5.10;61.85
21395;BME280;10858;42.714;23.180;2023-01-31T13:44:46;94115.41;;;4.36;62.56
21395;BME280;10858;42.714;23.180;2023-01-31T13:47:28;94118.13;;;3.96;63.25
21395;BME280;10858;42.714;23.180;2023-01-31T13:50:05;94120.63;;;4.23;63.20
21395;BME280;10858;42.714;23.180;2023-01-31T13:53:00;94123.81;;;4.28;62.54
21395;BME280;10858;42.714;23.180;2023-01-31T13:55:39;94124.16;;;4.97;61.66
21395;BME280;10858;42.714;23.180;2023-01-31T14:00:55;94120.97;;;4.56;61.65
21395;BME280;10858;42.714;23.180;2023-01-31T14:03:25;94126.75;;;4.49;62.90
21395;BME280;10858;42.714;23.180;2023-01-31T14:05:58;94125.97;;;4.09;63.21
21395;BME280;10858;42.714;23.180;2023-01-31T14:16:43;94134.78;;;3.95;63.13
21395;BME280;10858;42.714;23.180;2023-01-31T14:21:55;94148.94;;;3.54;64.56
21395;BME280;10858;42.714;23.180;2023-01-31T14:30:07;94143.66;;;3.68;63.96
21395;BME280;10858;42.714;23.180;2023-01-31T14:57:41;94172.81;;;2.53;70.44
21395;BME280;10858;42.714;23.180;2023-01-31T15:03:11;94186.53;;;2.71;69.84
21395;BME280;10858;42.714;23.180;2023-01-31T15:05:43;94185.41;;;2.61;70.29
21395;BME280;10858;42.714;23.180;2023-01-31T15:10:59;94190.47;;;2.64;69.99
21395;BME280;10858;42.714;23.180;2023-01-31T15:18:56;94203.19;;;2.98;68.78
21395;BME280;10858;42.714;23.180;2023-01-31T15:21:30;94197.84;;;3.00;68.86
21395;BME280;10858;42.714;23.180;2023-01-31T15:23:59;94198.13;;;2.81;68.34
21395;BME280;10858;42.714;23.180;2023-01-31T15:26:29;94209.34;;;2.97;68.20
21395;BME280;10858;42.714;23.180;2023-01-31T15:28:57;94211.34;;;2.80;67.77
21395;BME280;10858;42.714;23.180;2023-01-31T15:31:34;94210.69;;;2.76;68.41
21395;BME280;10858;42.714;23.180;2023-01-31T15:37:07;94219.56;;;2.88;67.44
21395;BME280;10858;42.714;23.180;2023-01-31T15:40:03;94224.59;;;2.77;68.33
21395;BME280;10858;42.714;23.180;2023-01-31T15:42:32;94214.22;;;2.75;67.73
21395;BME280;10858;42.714;23.180;2023-01-31T15:45:22;94218.72;;;2.87;67.53
21395;BME280;10858;42.714;23.180;2023-01-31T15:48:01;94223.94;;;3.01;67.17
21395;BME280;10858;42.714;23.180;2023-01-31T15:50:30;94231.91;;;2.86;67.35
21395;BME280;10858;42.714;23.180;2023-01-31T15:53:04;94230.41;;;2.82;66.70
21395;BME280;10858;42.714;23.180;2023-01-31T15:55:32;94233.50;;;3.02;66.24
21395;BME280;10858;42.714;23.180;2023-01-31T15:58:01;94241.81;;;3.09;66.69
21395;BME280;10858;42.714;23.180;2023-01-31T16:00:36;94247.53;;;3.01;66.71
21395;BME280;10858;42.714;23.180;2023-01-31T16:03:05;94238.16;;;2.97;66.37